createdAt,value
2023-01-09T00:00:43.772Z,93944.91
2023-01-09T00:01:44.222Z,93966.09
2023-01-09T00:02:41.369Z,93935.69
2023-01-09T00:03:38.083Z,93932.28
2023-01-09T00:04:35.115Z,93962.81
2023-01-09T00:05:31.715Z,93963.13
2023-01-09T00:06:28.641Z,93964.53
2023-01-09T00:07:25.289Z,93969.22
2023-01-09T00:08:21.963Z,93960.63
2023-01-09T00:09:18.604Z,93957.13
2023-01-09T00:10:15.571Z,93960.75
2023-01-09T00:11:12.217Z,93966.28
2023-01-09T00:12:08.885Z,93959.75
2023-01-09T00:13:05.578Z,93960.91
2023-01-09T00:14:02.322Z,93960.72
2023-01-09T00:14:59.066Z,93956.44
2023-01-09T00:15:55.723Z,93931.25
2023-01-09T00:16:55.434Z,93946.19
2023-01-09T00:17:52.171Z,93954.78
2023-01-09T00:18:48.830Z,93961.41
2023-01-09T00:19:45.478Z,93928.19
2023-01-09T00:20:42.084Z,93889.81
2023-01-09T00:21:39.050Z,93942.94
2023-01-09T00:22:37.197Z,93945.34
2023-01-09T00:23:34.080Z,93957.63
2023-01-09T00:24:30.696Z,93894.06
2023-01-09T00:25:27.374Z,93954.69
2023-01-09T00:26:24.050Z,93962.75
2023-01-09T00:27:20.743Z,93937.22
2023-01-09T00:28:17.472Z,93970.03
2023-01-09T00:29:14.320Z,93945.31
2023-01-09T00:30:11.797Z,93957.00
2023-01-09T00:31:09.209Z,93962.59
2023-01-09T00:32:10.135Z,93956.00
2023-01-09T00:33:06.808Z,93968.72
2023-01-09T00:34:07.285Z,93955.34
2023-01-09T00:35:04.258Z,93935.09
2023-01-09T00:36:01.162Z,93962.03
2023-01-09T00:36:57.838Z,93959.44
2023-01-09T00:37:55.113Z,93960.81
2023-01-09T00:38:52.097Z,93925.22
2023-01-09T00:39:48.759Z,93951.84
2023-01-09T00:40:45.521Z,93959.25
2023-01-09T00:41:47.019Z,93961.78
2023-01-09T00:42:48.960Z,93957.16
2023-01-09T00:43:50.212Z,93963.63
2023-01-09T00:44:52.702Z,93961.59
2023-01-09T00:45:49.321Z,93966.16
2023-01-09T00:46:55.357Z,93953.56
2023-01-09T00:47:52.813Z,93921.59
2023-01-09T00:48:49.989Z,93953.41
2023-01-09T00:49:47.995Z,93954.72
2023-01-09T00:50:44.747Z,93955.34
2023-01-09T00:51:42.157Z,93955.47
2023-01-09T00:52:40.439Z,93934.06
2023-01-09T00:53:40.288Z,93953.78
2023-01-09T00:54:38.075Z,93950.56
2023-01-09T00:55:37.547Z,93929.84
2023-01-09T00:56:35.937Z,93955.22
2023-01-09T00:57:33.083Z,93953.34
2023-01-09T00:58:30.033Z,93961.56
2023-01-09T00:59:27.630Z,93924.72
2023-01-09T01:00:24.496Z,93950.38
2023-01-09T01:01:21.658Z,93949.78
2023-01-09T01:02:18.516Z,93935.72
2023-01-09T01:03:15.728Z,93938.84
2023-01-09T01:04:30.663Z,93950.06
2023-01-09T01:05:46.149Z,93937.22
2023-01-09T01:07:01.192Z,93950.13
2023-01-09T01:07:57.863Z,93954.97
2023-01-09T01:08:58.253Z,93947.63
2023-01-09T01:09:54.835Z,93911.97
2023-01-09T01:10:51.428Z,93941.81
2023-01-09T01:11:48.042Z,93948.03
2023-01-09T01:12:44.972Z,93942.16
2023-01-09T01:13:42.105Z,93924.09
2023-01-09T01:14:39.040Z,93894.81
2023-01-09T01:15:39.244Z,93951.06
2023-01-09T01:16:35.947Z,93949.13
2023-01-09T01:17:37.380Z,93909.16
2023-01-09T01:18:34.119Z,93912.41
2023-01-09T01:19:31.250Z,93941.91
2023-01-09T01:20:27.896Z,93885.81
2023-01-09T01:21:24.664Z,93928.00
2023-01-09T01:22:21.307Z,93899.41
2023-01-09T01:23:17.969Z,93931.16
2023-01-09T01:24:18.222Z,93938.63
2023-01-09T01:25:17.266Z,93929.41
2023-01-09T01:26:16.167Z,93939.50
2023-01-09T01:27:12.933Z,93931.84
2023-01-09T01:28:10.539Z,93901.81
2023-01-09T01:29:07.248Z,93943.13
2023-01-09T01:30:04.896Z,93901.25
2023-01-09T01:31:02.291Z,93929.50
2023-01-09T01:31:59.030Z,93883.03
2023-01-09T01:32:55.695Z,93922.75
2023-01-09T01:33:52.406Z,93887.94
2023-01-09T01:34:49.045Z,93918.63
2023-01-09T01:35:45.690Z,93912.94
2023-01-09T01:36:42.357Z,93915.03
2023-01-09T01:37:40.144Z,93910.47
2023-01-09T01:38:36.876Z,93898.09
2023-01-09T01:39:33.600Z,93880.75
2023-01-09T01:40:30.612Z,93877.53
2023-01-09T01:41:30.797Z,93906.22
2023-01-09T01:42:27.524Z,93883.84
2023-01-09T01:43:24.225Z,93867.94
2023-01-09T01:44:55.011Z,93897.84
2023-01-09T01:45:51.688Z,93894.28
2023-01-09T01:46:48.391Z,93867.44
2023-01-09T01:47:54.022Z,93906.94
2023-01-09T01:48:57.764Z,93897.25
2023-01-09T01:49:55.228Z,93904.41
2023-01-09T01:50:56.961Z,93871.41
2023-01-09T01:51:54.235Z,93895.69
2023-01-09T01:52:57.968Z,93888.47
2023-01-09T01:53:59.461Z,93843.78
2023-01-09T01:54:56.320Z,93890.34
2023-01-09T01:56:14.844Z,93886.03
2023-01-09T01:57:12.251Z,93883.78
2023-01-09T01:58:12.313Z,93892.06
2023-01-09T01:59:19.534Z,93897.34
2023-01-09T02:00:19.036Z,93888.28
2023-01-09T02:01:16.023Z,93885.22
2023-01-09T02:02:12.805Z,93895.75
2023-01-09T02:03:10.629Z,93892.41
2023-01-09T02:04:07.575Z,93892.63
2023-01-09T02:05:04.922Z,93827.88
2023-01-09T02:06:04.512Z,93840.72
2023-01-09T02:07:05.628Z,93886.56
2023-01-09T02:08:02.302Z,93860.66
2023-01-09T02:08:59.045Z,93884.16
2023-01-09T02:09:57.295Z,93880.81
2023-01-09T02:10:54.880Z,93877.66
2023-01-09T02:11:56.461Z,93881.09
2023-01-09T02:12:53.127Z,93850.25
2023-01-09T02:13:49.908Z,93876.03
2023-01-09T02:14:48.004Z,93857.91
2023-01-09T02:15:57.002Z,93878.44
2023-01-09T02:17:14.649Z,93883.78
2023-01-09T02:18:35.195Z,93882.84
2023-01-09T02:19:37.358Z,93884.25
2023-01-09T02:20:40.893Z,93771.88
2023-01-09T02:21:37.647Z,93882.72
2023-01-09T02:23:12.899Z,93877.75
2023-01-09T02:24:27.067Z,93859.84
2023-01-09T02:25:42.293Z,93873.03
2023-01-09T02:27:14.231Z,93881.50
2023-01-09T02:28:53.348Z,93872.78
2023-01-09T02:30:05.171Z,93875.31
2023-01-09T02:31:15.550Z,93867.19
2023-01-09T02:32:40.584Z,93871.78
2023-01-09T02:33:54.270Z,93877.16
2023-01-09T02:35:00.808Z,93839.63
2023-01-09T02:36:22.329Z,93873.25
2023-01-09T02:37:51.979Z,93878.72
2023-01-09T02:38:55.499Z,93870.56
2023-01-09T02:40:03.150Z,93873.78
2023-01-09T02:41:42.513Z,93872.94
2023-01-09T02:42:43.122Z,93877.63
2023-01-09T02:43:41.226Z,93869.31
2023-01-09T02:44:37.877Z,93824.63
2023-01-09T02:45:34.702Z,93825.44
2023-01-09T02:46:31.487Z,93848.06
2023-01-09T02:47:29.431Z,93879.09
2023-01-09T02:48:26.049Z,93876.72
2023-01-09T02:49:22.724Z,93872.28
2023-01-09T02:51:03.850Z,93850.06
2023-01-09T02:52:20.297Z,93865.69
2023-01-09T02:53:39.887Z,93867.91
2023-01-09T02:54:54.534Z,93871.91
2023-01-09T02:56:11.425Z,93863.81
2023-01-09T02:57:13.764Z,93866.22
2023-01-09T02:58:18.684Z,93825.63
2023-01-09T02:59:48.300Z,93864.13
2023-01-09T03:01:00.479Z,93861.72
2023-01-09T03:02:15.931Z,93866.25
2023-01-09T03:03:50.116Z,93866.31
2023-01-09T03:04:55.998Z,93857.50
2023-01-09T03:06:10.816Z,93857.47
2023-01-09T03:07:15.578Z,93844.41
2023-01-09T03:08:25.632Z,93815.44
2023-01-09T03:09:27.607Z,93862.50
2023-01-09T03:11:01.899Z,93869.78
2023-01-09T03:12:05.873Z,93856.94
2023-01-09T03:13:03.605Z,93861.63
2023-01-09T03:14:07.224Z,93861.41
2023-01-09T03:15:06.815Z,93861.63
2023-01-09T03:16:07.995Z,93856.09
2023-01-09T03:17:10.384Z,93868.19
2023-01-09T03:18:10.645Z,93826.56
2023-01-09T03:19:15.838Z,93823.34
2023-01-09T03:20:15.956Z,93861.59
2023-01-09T03:21:13.399Z,93860.81
2023-01-09T03:22:10.159Z,93861.59
2023-01-09T03:23:08.400Z,93864.59
2023-01-09T03:24:05.605Z,93861.91
2023-01-09T03:25:02.414Z,93870.09
2023-01-09T03:25:59.181Z,93867.72
2023-01-09T03:26:55.870Z,93868.44
2023-01-09T03:27:57.053Z,93862.75
2023-01-09T03:28:53.761Z,93854.84
2023-01-09T03:29:51.355Z,93862.94
2023-01-09T03:30:47.955Z,93813.63
2023-01-09T03:31:44.667Z,93864.13
2023-01-09T03:32:41.359Z,93865.91
2023-01-09T03:33:38.256Z,93821.63
2023-01-09T03:34:34.897Z,93868.31
2023-01-09T03:35:31.535Z,93858.59
2023-01-09T03:36:28.177Z,93854.25
2023-01-09T03:37:24.831Z,93855.78
2023-01-09T03:38:21.582Z,93855.53
2023-01-09T03:39:18.256Z,93865.19
2023-01-09T03:40:15.182Z,93863.41
2023-01-09T03:41:11.952Z,93861.34
2023-01-09T03:42:08.538Z,93861.03
2023-01-09T03:43:05.238Z,93853.16
2023-01-09T03:44:01.852Z,93862.06
2023-01-09T03:44:58.519Z,93853.41
2023-01-09T03:45:55.231Z,93857.28
2023-01-09T03:46:51.984Z,93850.47
2023-01-09T03:47:48.696Z,93852.84
2023-01-09T03:48:45.364Z,93858.31
2023-01-09T03:49:42.065Z,93856.72
2023-01-09T03:50:38.783Z,93852.25
2023-01-09T03:51:35.459Z,93867.50
2023-01-09T03:52:32.598Z,93855.16
2023-01-09T03:53:29.412Z,93828.56
2023-01-09T03:54:26.169Z,93810.56
2023-01-09T03:55:22.812Z,93860.94
2023-01-09T03:56:19.562Z,93860.44
2023-01-09T03:57:16.219Z,93864.72
2023-01-09T03:58:13.911Z,93866.81
2023-01-09T03:59:10.533Z,93818.66
2023-01-09T04:00:08.609Z,93861.16
2023-01-09T04:01:09.470Z,93869.66
2023-01-09T04:02:06.627Z,93868.28
2023-01-09T04:03:03.309Z,93865.56
2023-01-09T04:04:00.082Z,93861.63
2023-01-09T04:04:56.718Z,93862.50
2023-01-09T04:05:53.394Z,93839.22
2023-01-09T04:06:50.082Z,93861.53
2023-01-09T04:07:46.817Z,93847.59
2023-01-09T04:08:43.775Z,93812.97
2023-01-09T04:09:40.361Z,93821.88
2023-01-09T04:10:37.060Z,93856.78
2023-01-09T04:11:33.792Z,93809.28
2023-01-09T04:12:30.460Z,93820.53
2023-01-09T04:13:27.124Z,93850.31
2023-01-09T04:14:23.774Z,93850.84
2023-01-09T04:15:20.567Z,93822.28
2023-01-09T04:16:17.268Z,93786.19
2023-01-09T04:17:14.003Z,93853.44
2023-01-09T04:18:10.589Z,93850.47
2023-01-09T04:19:07.283Z,93834.00
2023-01-09T04:20:04.412Z,93812.84
2023-01-09T04:21:01.060Z,93850.41
2023-01-09T04:21:57.637Z,93847.59
2023-01-09T04:22:54.401Z,93849.50
2023-01-09T04:23:51.047Z,93831.47
2023-01-09T04:24:47.692Z,93852.97
2023-01-09T04:25:44.390Z,93814.47
2023-01-09T04:26:41.074Z,93839.03
2023-01-09T04:27:37.887Z,93761.13
2023-01-09T04:28:34.561Z,93846.38
2023-01-09T04:29:31.217Z,93824.91
2023-01-09T04:30:27.974Z,93794.41
2023-01-09T04:31:24.679Z,93852.84
2023-01-09T04:32:21.419Z,93848.22
2023-01-09T04:33:18.057Z,93843.59
2023-01-09T04:34:14.709Z,93842.00
2023-01-09T04:35:11.399Z,93846.28
2023-01-09T04:36:08.396Z,93845.41
2023-01-09T04:37:05.041Z,93839.66
2023-01-09T04:38:01.614Z,93816.03
2023-01-09T04:38:58.239Z,93819.16
2023-01-09T04:39:57.727Z,93833.81
2023-01-09T04:40:54.582Z,93842.06
2023-01-09T04:41:51.385Z,93839.03
2023-01-09T04:42:48.014Z,93836.03
2023-01-09T04:43:44.827Z,93784.59
2023-01-09T04:44:41.548Z,93841.25
2023-01-09T04:45:38.252Z,93847.88
2023-01-09T04:46:34.889Z,93844.34
2023-01-09T04:47:31.743Z,93813.78
2023-01-09T04:48:28.469Z,93846.53
2023-01-09T04:49:25.944Z,93817.97
2023-01-09T04:50:22.748Z,93804.69
2023-01-09T04:51:19.494Z,93847.88
2023-01-09T04:52:16.155Z,93842.91
2023-01-09T04:53:12.825Z,93836.00
2023-01-09T04:54:10.063Z,93817.03
2023-01-09T04:55:08.262Z,93849.69
2023-01-09T04:56:05.248Z,93847.06
2023-01-09T04:57:01.962Z,93823.91
2023-01-09T04:57:58.686Z,93799.53
2023-01-09T04:58:55.514Z,93831.22
2023-01-09T04:59:52.858Z,93836.91
2023-01-09T05:00:50.201Z,93836.69
2023-01-09T05:01:47.303Z,93839.00
2023-01-09T05:02:44.090Z,93812.69
2023-01-09T05:03:40.789Z,93838.47
2023-01-09T05:04:37.601Z,93824.47
2023-01-09T05:05:34.279Z,93836.78
2023-01-09T05:06:31.528Z,93781.41
2023-01-09T05:07:28.281Z,93828.25
2023-01-09T05:08:24.865Z,93833.50
2023-01-09T05:09:22.358Z,93836.66
2023-01-09T05:10:19.012Z,93835.47
2023-01-09T05:11:15.956Z,93838.63
2023-01-09T05:12:12.618Z,93817.31
2023-01-09T05:13:09.329Z,93833.72
2023-01-09T05:14:05.922Z,93839.16
2023-01-09T05:15:04.334Z,93847.88
2023-01-09T05:16:01.023Z,93842.31
2023-01-09T05:16:57.627Z,93839.84
2023-01-09T05:17:54.441Z,93833.53
2023-01-09T05:18:56.509Z,93838.28
2023-01-09T05:19:53.345Z,93837.56
2023-01-09T05:20:50.013Z,93837.84
2023-01-09T05:21:46.634Z,93837.66
2023-01-09T05:22:43.193Z,93838.00
2023-01-09T05:23:39.969Z,93841.34
2023-01-09T05:24:36.651Z,93816.88
2023-01-09T05:25:33.299Z,93835.09
2023-01-09T05:26:30.036Z,93843.56
2023-01-09T05:27:27.376Z,93849.19
2023-01-09T05:28:24.105Z,93843.25
2023-01-09T05:29:20.843Z,93828.72
2023-01-09T05:30:18.444Z,93787.53
2023-01-09T05:31:15.196Z,93837.91
2023-01-09T05:32:11.936Z,93843.19
2023-01-09T05:33:08.835Z,93815.25
2023-01-09T05:34:05.505Z,93845.31
2023-01-09T05:35:02.175Z,93866.25
2023-01-09T05:35:58.828Z,93814.56
2023-01-09T05:36:55.479Z,93830.69
2023-01-09T05:37:52.153Z,93819.81
2023-01-09T05:38:48.854Z,93841.19
2023-01-09T05:39:45.492Z,93839.91
2023-01-09T05:40:42.150Z,93834.50
2023-01-09T05:41:38.975Z,93838.28
2023-01-09T05:42:35.579Z,93836.38
2023-01-09T05:43:32.334Z,93834.28
2023-01-09T05:44:28.996Z,93834.78
2023-01-09T05:45:27.253Z,93834.56
2023-01-09T05:46:23.931Z,93831.09
2023-01-09T05:47:20.666Z,93833.53
2023-01-09T05:48:17.544Z,93828.53
2023-01-09T05:49:14.236Z,93810.09
2023-01-09T05:50:11.790Z,93758.28
2023-01-09T05:51:08.532Z,93837.75
2023-01-09T05:52:05.524Z,93798.41
2023-01-09T05:53:02.252Z,93831.31
2023-01-09T05:53:59.387Z,93819.03
2023-01-09T05:54:57.256Z,93843.53
2023-01-09T05:55:53.941Z,93831.09
2023-01-09T05:56:50.568Z,93835.97
2023-01-09T05:57:47.284Z,93831.09
2023-01-09T05:58:44.019Z,93831.69
2023-01-09T05:59:40.699Z,93815.56
2023-01-09T06:00:37.415Z,93793.97
2023-01-09T06:01:34.209Z,93833.16
2023-01-09T06:02:31.145Z,93835.72
2023-01-09T06:03:27.848Z,93828.84
2023-01-09T06:04:24.821Z,93832.13
2023-01-09T06:05:21.449Z,93842.63
2023-01-09T06:06:18.095Z,93724.22
2023-01-09T06:07:19.888Z,93840.47
2023-01-09T06:08:17.955Z,93834.28
2023-01-09T06:09:14.554Z,93834.81
2023-01-09T06:10:13.128Z,93808.38
2023-01-09T06:11:09.797Z,93832.09
2023-01-09T06:12:06.802Z,93820.59
2023-01-09T06:13:03.442Z,93781.94
2023-01-09T06:14:00.170Z,93821.22
2023-01-09T06:14:56.778Z,93796.19
2023-01-09T06:15:53.589Z,93822.53
2023-01-09T06:16:51.059Z,93817.34
2023-01-09T06:17:47.753Z,93817.81
2023-01-09T06:18:44.768Z,93822.78
2023-01-09T06:19:41.417Z,93784.94
2023-01-09T06:20:38.029Z,93820.31
2023-01-09T06:21:34.662Z,93791.03
2023-01-09T06:22:31.304Z,93812.75
2023-01-09T06:23:27.953Z,93811.31
2023-01-09T06:24:25.255Z,93814.44
2023-01-09T06:25:22.140Z,93817.03
2023-01-09T06:26:18.792Z,93815.47
2023-01-09T06:27:15.399Z,93813.38
2023-01-09T06:28:12.199Z,93817.34
2023-01-09T06:29:08.997Z,93814.19
2023-01-09T06:30:06.481Z,93814.00
2023-01-09T06:31:03.329Z,93809.16
2023-01-09T06:31:59.945Z,93813.53
2023-01-09T06:32:56.691Z,93812.47
2023-01-09T06:33:53.651Z,93827.19
2023-01-09T06:34:50.254Z,93798.88
2023-01-09T06:35:46.957Z,93810.31
2023-01-09T06:36:43.601Z,93756.47
2023-01-09T06:37:40.186Z,93746.13
2023-01-09T06:38:36.853Z,93814.09
2023-01-09T06:39:33.530Z,93811.97
2023-01-09T06:40:30.124Z,93798.78
2023-01-09T06:41:26.811Z,93803.78
2023-01-09T06:42:23.398Z,93805.16
2023-01-09T06:43:19.981Z,93820.75
2023-01-09T06:44:16.678Z,93809.44
2023-01-09T06:45:14.048Z,93821.63
2023-01-09T06:46:10.658Z,93806.22
2023-01-09T06:47:07.288Z,93783.63
2023-01-09T06:48:03.970Z,93802.44
2023-01-09T06:49:00.704Z,93819.78
2023-01-09T06:49:58.255Z,93801.19
2023-01-09T06:50:55.198Z,93810.69
2023-01-09T06:51:52.219Z,93815.69
2023-01-09T06:52:48.788Z,93810.41
2023-01-09T06:53:45.427Z,93806.56
2023-01-09T06:54:42.123Z,93778.94
2023-01-09T06:55:38.802Z,93814.66
2023-01-09T06:56:35.433Z,93820.00
2023-01-09T06:57:32.100Z,93790.38
2023-01-09T06:58:29.245Z,93817.19
2023-01-09T06:59:26.329Z,93816.22
2023-01-09T07:00:23.051Z,93807.75
2023-01-09T07:01:19.727Z,93791.94
2023-01-09T07:02:21.027Z,93807.53
2023-01-09T07:03:19.953Z,93800.13
2023-01-09T07:04:17.942Z,93821.47
2023-01-09T07:05:14.672Z,93814.81
2023-01-09T07:06:11.371Z,93819.81
2023-01-09T07:07:08.001Z,93813.75
2023-01-09T07:08:04.782Z,93817.06
2023-01-09T07:09:01.547Z,93811.75
2023-01-09T07:09:58.198Z,93806.69
2023-01-09T07:10:54.856Z,93803.75
2023-01-09T07:11:51.487Z,93811.09
2023-01-09T07:12:48.136Z,93798.44
2023-01-09T07:13:44.787Z,93802.66
2023-01-09T07:14:41.733Z,93799.56
2023-01-09T07:15:38.462Z,93775.69
2023-01-09T07:16:35.189Z,93801.72
2023-01-09T07:17:32.790Z,93800.84
2023-01-09T07:18:29.433Z,93803.22
2023-01-09T07:19:26.172Z,93804.31
2023-01-09T07:20:22.808Z,93808.03
2023-01-09T07:21:19.457Z,93789.09
2023-01-09T07:22:16.314Z,93817.28
2023-01-09T07:23:13.311Z,93771.91
2023-01-09T07:24:09.944Z,93817.56
2023-01-09T07:25:06.747Z,93816.25
2023-01-09T07:26:03.787Z,93801.31
2023-01-09T07:27:00.402Z,93823.03
2023-01-09T07:27:57.004Z,93822.69
2023-01-09T07:28:54.614Z,93820.56
2023-01-09T07:29:53.438Z,93820.81
2023-01-09T07:30:50.137Z,93802.66
2023-01-09T07:31:47.018Z,93809.91
2023-01-09T07:32:43.730Z,93815.31
2023-01-09T07:33:40.493Z,93817.91
2023-01-09T07:34:37.190Z,93818.84
2023-01-09T07:35:34.174Z,93769.16
2023-01-09T07:36:30.880Z,93813.94
2023-01-09T07:37:27.472Z,93815.53
2023-01-09T07:38:24.058Z,93814.59
2023-01-09T07:39:20.805Z,93816.41
2023-01-09T07:40:17.604Z,93819.47
2023-01-09T07:41:14.265Z,93826.53
2023-01-09T07:42:11.544Z,93825.31
2023-01-09T07:43:08.144Z,93820.81
2023-01-09T07:44:05.126Z,93812.31
2023-01-09T07:45:01.820Z,93817.91
2023-01-09T07:45:58.428Z,93821.38
2023-01-09T07:46:55.060Z,93825.00
2023-01-09T07:47:52.396Z,93824.38
2023-01-09T07:48:48.980Z,93795.03
2023-01-09T07:49:45.595Z,93826.94
2023-01-09T07:50:42.251Z,93825.81
2023-01-09T07:51:43.076Z,93831.16
2023-01-09T07:52:39.728Z,93833.97
2023-01-09T07:53:36.447Z,93834.56
2023-01-09T07:54:33.099Z,93821.00
2023-01-09T07:55:29.829Z,93827.66
2023-01-09T07:56:26.544Z,93798.69
2023-01-09T07:57:23.118Z,93833.72
2023-01-09T07:58:19.762Z,93828.38
2023-01-09T07:59:16.433Z,93844.59
2023-01-09T08:00:13.523Z,93798.06
2023-01-09T08:01:10.262Z,93844.47
2023-01-09T08:02:07.377Z,93842.91
2023-01-09T08:03:04.938Z,93841.66
2023-01-09T08:04:01.526Z,93843.22
2023-01-09T08:04:58.291Z,93799.78
2023-01-09T08:05:55.063Z,93845.81
2023-01-09T08:06:51.680Z,93841.94
2023-01-09T08:07:50.679Z,93833.97
2023-01-09T08:08:47.341Z,93846.31
2023-01-09T08:09:43.900Z,93845.88
2023-01-09T08:10:40.792Z,93843.06
2023-01-09T08:11:37.427Z,93854.69
2023-01-09T08:12:34.061Z,93839.56
2023-01-09T08:13:30.768Z,93850.56
2023-01-09T08:14:27.493Z,93848.81
2023-01-09T08:15:24.228Z,93853.59
2023-01-09T08:16:20.994Z,93818.53
2023-01-09T08:17:18.352Z,93856.84
2023-01-09T08:18:15.112Z,93859.34
2023-01-09T08:19:12.334Z,93833.16
2023-01-09T08:20:11.942Z,93858.78
2023-01-09T08:21:08.624Z,93850.63
2023-01-09T08:22:05.238Z,93848.44
2023-01-09T08:23:01.921Z,93856.63
2023-01-09T08:23:58.838Z,93854.88
2023-01-09T08:24:55.893Z,93851.59
2023-01-09T08:25:53.573Z,93830.41
2023-01-09T08:26:50.105Z,93849.94
2023-01-09T08:27:47.250Z,93821.56
2023-01-09T08:28:43.994Z,93840.13
2023-01-09T08:29:40.651Z,93832.78
2023-01-09T08:30:37.221Z,93846.91
2023-01-09T08:31:33.851Z,93850.66
2023-01-09T08:32:30.466Z,93848.69
2023-01-09T08:33:27.418Z,93853.50
2023-01-09T08:34:24.075Z,93844.34
2023-01-09T08:35:20.882Z,93817.56
2023-01-09T08:36:17.542Z,93839.50
2023-01-09T08:37:14.145Z,93820.78
2023-01-09T08:38:11.202Z,93824.94
2023-01-09T08:39:09.054Z,93825.22
2023-01-09T08:40:06.148Z,93830.59
2023-01-09T08:41:22.725Z,93827.50
2023-01-09T08:42:38.737Z,93800.72
2023-01-09T08:43:57.021Z,93834.97
2023-01-09T08:45:11.950Z,93831.66
2023-01-09T08:46:39.801Z,93832.59
2023-01-09T08:47:36.766Z,93829.63
2023-01-09T08:48:33.446Z,93825.16
2023-01-09T08:49:30.071Z,93834.00
2023-01-09T08:50:27.346Z,93835.69
2023-01-09T08:51:23.948Z,93794.75
2023-01-09T08:52:20.574Z,93763.34
2023-01-09T08:53:17.198Z,93818.09
2023-01-09T08:54:14.031Z,93796.16
2023-01-09T08:55:10.742Z,93784.91
2023-01-09T08:56:07.724Z,93818.00
2023-01-09T08:57:04.570Z,93817.28
2023-01-09T08:58:01.695Z,93811.38
2023-01-09T08:58:58.410Z,93801.34
2023-01-09T08:59:55.074Z,93819.06
2023-01-09T09:00:51.891Z,93789.75
2023-01-09T09:01:48.604Z,93820.22
2023-01-09T09:02:45.457Z,93822.81
2023-01-09T09:03:42.119Z,93811.56
2023-01-09T09:04:38.796Z,93803.00
2023-01-09T09:05:35.472Z,93809.78
2023-01-09T09:06:33.313Z,93810.56
2023-01-09T09:07:29.986Z,93778.94
2023-01-09T09:08:26.605Z,93806.72
2023-01-09T09:09:23.331Z,93805.78
2023-01-09T09:10:20.758Z,93805.41
2023-01-09T09:11:17.348Z,93803.28
2023-01-09T09:12:14.048Z,93808.78
2023-01-09T09:13:10.728Z,93805.94
2023-01-09T09:14:25.807Z,93806.00
2023-01-09T09:15:26.658Z,93810.31
2023-01-09T09:16:24.767Z,93803.13
2023-01-09T09:17:22.669Z,93801.97
2023-01-09T09:18:19.323Z,93801.09
2023-01-09T09:19:15.947Z,93796.38
2023-01-09T09:20:12.626Z,93792.31
2023-01-09T09:21:11.559Z,93790.72
2023-01-09T09:22:08.424Z,93783.78
2023-01-09T09:23:06.622Z,93784.50
2023-01-09T09:24:03.242Z,93782.34
2023-01-09T09:24:59.880Z,93779.66
2023-01-09T09:25:56.513Z,93773.47
2023-01-09T09:26:53.276Z,93779.84
2023-01-09T09:27:50.360Z,93783.88
2023-01-09T09:28:47.302Z,93777.63
2023-01-09T09:29:43.925Z,93775.31
2023-01-09T09:30:40.515Z,93752.94
2023-01-09T09:31:38.714Z,93783.25
2023-01-09T09:32:35.902Z,93772.28
2023-01-09T09:33:32.686Z,93756.28
2023-01-09T09:34:29.532Z,93773.03
2023-01-09T09:35:26.209Z,93766.00
2023-01-09T09:36:22.897Z,93724.13
2023-01-09T09:37:19.579Z,93777.00
2023-01-09T09:38:16.291Z,93771.69
2023-01-09T09:39:12.974Z,93761.06
2023-01-09T09:40:24.121Z,93763.91
2023-01-09T09:42:10.560Z,93759.81
2023-01-09T09:43:42.601Z,93750.31
2023-01-09T09:44:53.764Z,93744.63
2023-01-09T09:46:20.558Z,93741.06
2023-01-09T09:47:43.588Z,93738.00
2023-01-09T09:48:50.185Z,93709.91
2023-01-09T09:50:24.323Z,93730.38
2023-01-09T09:51:26.855Z,93720.69
2023-01-09T09:52:30.650Z,93715.22
2023-01-09T09:53:35.336Z,93705.75
2023-01-09T09:54:40.801Z,93706.56
2023-01-09T09:55:40.525Z,93709.34
2023-01-09T09:56:46.030Z,93690.53
2023-01-09T09:57:43.958Z,93697.22
2023-01-09T09:58:43.888Z,93692.31
2023-01-09T09:59:42.149Z,93657.56
2023-01-09T10:00:39.350Z,93681.09
2023-01-09T10:01:53.241Z,93665.28
2023-01-09T10:02:56.982Z,93686.44
2023-01-09T10:03:58.778Z,93642.66
2023-01-09T10:05:01.980Z,93678.41
2023-01-09T10:06:02.780Z,93668.50
2023-01-09T10:07:20.534Z,93661.97
2023-01-09T10:08:38.188Z,93666.28
2023-01-09T10:09:49.728Z,93655.88
2023-01-09T10:10:56.209Z,93659.19
2023-01-09T10:12:08.265Z,93660.66
2023-01-09T10:13:23.760Z,93663.47
2023-01-09T10:14:24.180Z,93662.47
2023-01-09T10:15:30.862Z,93659.25
2023-01-09T10:16:45.984Z,93659.91
2023-01-09T10:18:09.365Z,93655.53
2023-01-09T10:19:20.848Z,93646.19
2023-01-09T10:20:17.443Z,93650.81
2023-01-09T10:21:23.340Z,93650.97
2023-01-09T10:22:47.910Z,93605.22
2023-01-09T10:24:01.618Z,93641.53
2023-01-09T10:25:19.525Z,93637.88
2023-01-09T10:26:16.132Z,93637.56
2023-01-09T10:27:28.037Z,93640.13
2023-01-09T10:28:46.212Z,93636.78
2023-01-09T10:30:21.586Z,93643.75
2023-01-09T10:31:24.033Z,93641.00
2023-01-09T10:32:40.991Z,93636.44
2023-01-09T10:33:59.073Z,93631.19
2023-01-09T10:35:19.325Z,93630.28
2023-01-09T10:36:28.785Z,93628.72
2023-01-09T10:37:34.208Z,93621.22
2023-01-09T10:38:37.949Z,93602.56
2023-01-09T10:39:40.401Z,93626.28
2023-01-09T10:40:40.323Z,93626.03
2023-01-09T10:41:39.894Z,93639.44
2023-01-09T10:42:50.660Z,93616.03
2023-01-09T10:44:06.004Z,93619.91
2023-01-09T10:45:10.895Z,93609.19
2023-01-09T10:46:16.456Z,93610.88
2023-01-09T10:47:21.560Z,93610.31
2023-01-09T10:48:29.861Z,93582.75
2023-01-09T10:49:27.469Z,93606.03
2023-01-09T10:50:31.114Z,93591.38
2023-01-09T10:51:36.206Z,93600.91
2023-01-09T10:52:41.723Z,93595.06
2023-01-09T10:53:43.426Z,93589.25
2023-01-09T10:54:47.335Z,93565.16
2023-01-09T10:55:47.844Z,93604.38
2023-01-09T10:57:10.805Z,93571.94
2023-01-09T10:58:16.164Z,93561.22
2023-01-09T10:59:12.906Z,93580.38
2023-01-09T11:00:23.634Z,93580.38
2023-01-09T11:01:33.605Z,93579.16
2023-01-09T11:02:34.181Z,93542.22
2023-01-09T11:03:30.939Z,93502.84
2023-01-09T11:04:36.551Z,93573.66
2023-01-09T11:05:34.125Z,93562.44
2023-01-09T11:06:59.911Z,93577.50
2023-01-09T11:08:23.097Z,93570.88
2023-01-09T11:09:19.780Z,93566.44
2023-01-09T11:10:17.478Z,93571.28
2023-01-09T11:11:33.140Z,93564.59
2023-01-09T11:12:34.564Z,93567.25
2023-01-09T11:13:33.306Z,93562.03
2023-01-09T11:14:32.563Z,93559.19
2023-01-09T11:15:29.310Z,93545.09
2023-01-09T11:16:26.023Z,93552.19
2023-01-09T11:17:27.144Z,93515.91
2023-01-09T11:18:25.035Z,93525.03
2023-01-09T11:19:22.807Z,93555.38
2023-01-09T11:20:22.421Z,93553.19
2023-01-09T11:21:32.950Z,93550.22
2023-01-09T11:22:29.633Z,93551.31
2023-01-09T11:23:29.306Z,93552.75
2023-01-09T11:24:28.941Z,93558.75
2023-01-09T11:25:28.125Z,93556.38
2023-01-09T11:26:27.314Z,93555.84
2023-01-09T11:27:24.937Z,93532.06
2023-01-09T11:28:21.637Z,93538.81
2023-01-09T11:29:20.695Z,93549.06
2023-01-09T11:30:20.498Z,93543.44
2023-01-09T11:31:24.593Z,93548.75
2023-01-09T11:32:23.937Z,93544.69
2023-01-09T11:33:24.644Z,93542.13
2023-01-09T11:34:24.327Z,93545.00
2023-01-09T11:35:24.596Z,93544.03
2023-01-09T11:36:27.623Z,93551.88
2023-01-09T11:37:28.386Z,93551.66
2023-01-09T11:38:25.507Z,93538.59
2023-01-09T11:39:25.717Z,93550.47
2023-01-09T11:40:22.569Z,93535.03
2023-01-09T11:41:22.638Z,93538.22
2023-01-09T11:42:42.203Z,93535.41
2023-01-09T11:43:40.436Z,93491.50
2023-01-09T11:44:37.172Z,93494.63
2023-01-09T11:45:36.104Z,93534.59
2023-01-09T11:46:39.526Z,93490.47